• Join FlightAware (Why Join?)
  • Login
  • US Flag 
07:19PM EDT


 

Airport Tracker/Info


-or-


 

Live Flight TrackerFlight Track Log ✈ N543PU ✈ 20-Mar-2014 ✈ KCMI - KLAF

Flight Track Log - Related Links

Times and Time Zones

All times are in EDT time to prevent confusion due to time zone crossing. See the N543PU flight status page for this flight to view local times or setup timezone preferences in your user account.

Time Position Orientation Groundspeed Altitude Reporting Facility
EDT Latitude Longitude Course Direction KTS MPH feet Rate Location/Type
09:40AM 40.1011 -88.3183 65° Northeast 97 112 4,300  Level Chicago Center
09:41AM 40.1136 -88.2817 66° East 112 129 5,100 420 Climbing Chicago Center
09:42AM 40.1131 -88.2300 91° East 133 153 5,200  Climbing Chicago Center
09:43AM 40.1144 -88.1700 88° East 150 173 5,200 -60 Level Chicago Center
09:44AM 40.1305 -87.9955 64° Northeast  Level FlightAware Approximate
09:44AM 40.1142 -88.1097 90° East 160 184 5,100  Level Chicago Center
09:45AM 40.1469 -87.9504 65° Northeast  Level FlightAware Approximate
09:45AM 40.1178 -88.0400 86° East 161 185 5,100  Level Chicago Center
09:46AM 40.1356 -87.9878 66° East 155 178 5,000 -60 Descending Chicago Center
09:47AM 40.1556 -87.9367 63° Northeast 155 178 5,000  Level Chicago Center
09:48AM 40.1717 -87.8883 66° East 155 178 5,000  Level Chicago Center
09:52AM 40.2497 -87.6808 52° Northeast 181 208 5,000  Level Chicago Center
09:53AM 40.2697 -87.6300 63° Northeast 161 185 5,100  Climbing Chicago Center
09:54AM 40.2869 -87.5775 67° East 161 185 5,000 -180 Descending Chicago Center
09:54AM 40.2906 -87.5661 67° East 158 182 4,900  Descending Chicago Center
09:55AM 40.2975 -87.5503 60° Northeast 158 182 5,000 120 Climbing Chicago Center
09:55AM 40.3086 -87.5297 55° Northeast 159 183 5,000  Level Chicago Center
09:56AM 40.3228 -87.5031 55° Northeast 155 178 5,000  Level Chicago Center
09:56AM 40.3322 -87.4814 60° Northeast 158 182 5,000 -420 Level Chicago Center
09:57AM 40.3100 -87.5057 52° Northeast  Level FlightAware Approximate
09:57AM 40.3414 -87.4553 65° Northeast 155 178 4,600  Level Chicago Center
09:57AM 40.3517 -87.4319 60° Northeast 158 182 4,500 -600 Descending Chicago Center
09:58AM 40.3644 -87.4078 55° Northeast 148 170 4,000 -600 Descending Chicago Center
09:58AM 40.3822 -87.3833 46° Northeast 157 181 3,900 -720 Descending Chicago Center
09:59AM 40.3936 -87.3608 56° Northeast 162 186 3,300 -660 Descending Chicago Center
10:00AM 40.4083 -87.3047 71° East 164 189 3,000 -240 Descending Chicago Center
10:01AM 40.4189 -87.2533 75° East 145 167 2,900 -60 Descending Chicago Center
10:02AM 40.4314 -87.2053 71° East 137 158 2,900  Level Chicago Center
10:03AM 40.4419 -87.1539 75° East 136 157 2,900  Level Chicago Center
10:04AM 40.4333 -87.1042 103° East 145 167 2,900 -180 Level Chicago Center
10:05AM 40.4289 -87.0575 97° East 123 142 2,600 -540 Descending Chicago Center
10:06AM 40.4200 -87.0186 107° East 108 124 1,900 -720 Descending Chicago Center